Yosemite National Park, CA

7:46 PM PST op 13 februari 2016 (GMT -0800)
Mariposa Pines | | Change Station
CLOSE
Current Station
Persoonlijk weerstation
Location: Mariposa, CA
Geometrische hoogte: 3799 ft
Nabije weerstations

Hoogte 3799 ft 37.59 °N, 119.85 °W | Updated 8 minutes ago

Helder
Helder
44.8 °F
Voelt als 45 °F
N
0.0
Wind Variabel Wind van noord

Vandaag
Hoog -- | Laag -- °F
--% Kans op neerslag
Gisteren
Hoog -- | Laag -- °F
Precip. -- inches
Druk 30.22 inches
Zicht 10.0 mijlen
Wolken Helder
Gevoelstemperatuur 45 °F
Dauwpunt 41 °F
Vochtigheid 85%
Neerslag 0.00 inches
Dikte sneeuw Niet beschikbaar.
6:50 AM 5:34 PM
Wassende halvemaan, 37% visible
METAR KO22 140315Z AUTO 00000KT 10SM CLR 09/06 A3022 RMK AO1
Druk 30.22 inches
Zicht 10.0 mijlen
Wolken Helder
Gevoelstemperatuur 45 °F
Dauwpunt 41 °F
Vochtigheid 85%
Neerslag 0.00 inches
Dikte sneeuw Niet beschikbaar.
6:50 AM 5:34 PM
Wassende halvemaan, 37% visible
METAR KO22 140315Z AUTO 00000KT 10SM CLR 09/06 A3022 RMK AO1

10-Day Weather Forecast

Almanac

Astronomie

Feb. 13, 2016 Opkomst Ondergang
Werkelijke tijd
Burgerlijke schemering
Nautische schemering
Astronomische schemering
Maan
Golflengte van het zichtbare licht
Daglengte
Tomorrow will be .
, % of the Moon is Illuminated

Extremen vandaag

State Highs State Lows

Community

WunderPhotos

Upload Photos

1,892,738 foto’s ge-upload!

WunderBlog® & News

Nearby

Luchtkwaliteit

  Luchtkwaliteit LK-index Verontreinigende stof
Not available.

Dikte sneeuw

Station Depth Geometrische hoogte

Aardbevingen

Stad Distance Mag. Time & Date
Minimum magnitude displayed is 2.5.

Watertemperatuur langs de kust

Plaats Temperatuur

Stations

Nabije weerstations

Locatie station Temp. Gevoelstemperatuur Dauwpunt Vochtigheid Wind Precip. Hoogte Geactualiseerd Type
                   

Watches & Warnings

There are currently no watches in effect.